createdAt,value
2019-05-02T00:01:09.477Z,53.30
2019-05-02T00:04:20.096Z,54.10
2019-05-02T00:07:20.093Z,53.40
2019-05-02T00:10:26.058Z,54.40
2019-05-02T00:13:30.162Z,54.40
2019-05-02T00:16:34.043Z,55.00
2019-05-02T00:19:37.980Z,55.20
2019-05-02T00:22:41.729Z,55.90
2019-05-02T00:25:47.333Z,56.50
2019-05-02T00:28:50.922Z,56.70
2019-05-02T00:31:54.614Z,56.30
2019-05-02T00:34:58.297Z,56.50
2019-05-02T00:38:02.427Z,56.30
2019-05-02T00:41:06.562Z,56.10
2019-05-02T00:44:10.954Z,56.00
2019-05-02T00:47:24.130Z,56.00
2019-05-02T00:50:29.494Z,56.60
2019-05-02T00:53:33.269Z,56.20
2019-05-02T00:56:40.109Z,56.20
2019-05-02T00:59:43.559Z,56.40
2019-05-02T01:02:58.011Z,56.30
2019-05-02T01:06:02.193Z,56.90
2019-05-02T01:09:10.884Z,56.70
2019-05-02T01:12:25.182Z,56.60
2019-05-02T01:15:18.533Z,55.90
2019-05-02T01:18:24.998Z,55.10
2019-05-02T01:21:28.885Z,54.60
2019-05-02T01:24:34.183Z,53.60
2019-05-02T01:27:43.137Z,52.90
2019-05-02T01:31:06.725Z,52.90
2019-05-02T01:34:27.301Z,52.60
2019-05-02T01:37:51.065Z,52.80
2019-05-02T01:40:55.752Z,52.90
2019-05-02T01:44:00.260Z,53.20
2019-05-02T01:47:05.122Z,52.80
2019-05-02T01:50:08.886Z,52.50
2019-05-02T01:53:12.823Z,52.60
2019-05-02T01:56:16.537Z,52.90
2019-05-02T01:59:20.485Z,52.70
2019-05-02T02:02:28.064Z,52.80
2019-05-02T02:05:32.296Z,52.10
2019-05-02T02:08:35.114Z,51.30
2019-05-02T02:11:38.852Z,50.70
2019-05-02T02:14:42.779Z,49.70
2019-05-02T02:17:46.969Z,49.90
2019-05-02T02:20:59.393Z,50.10
2019-05-02T02:24:09.756Z,49.80
2019-05-02T02:27:13.437Z,50.10
2019-05-02T02:30:23.908Z,50.20
2019-05-02T02:33:23.114Z,50.90
2019-05-02T02:36:31.501Z,50.60
2019-05-02T02:39:32.186Z,51.10
2019-05-02T02:42:35.901Z,51.10
2019-05-02T02:46:07.137Z,51.10
2019-05-02T02:49:13.927Z,52.00
2019-05-02T02:52:16.211Z,52.10
2019-05-02T02:55:22.043Z,51.30
2019-05-02T02:58:25.266Z,50.50
2019-05-02T03:01:31.125Z,49.80
2019-05-02T03:04:34.603Z,48.30
2019-05-02T03:07:39.683Z,48.60
2019-05-02T03:10:45.110Z,49.00
2019-05-02T03:14:06.160Z,49.30
2019-05-02T03:16:59.910Z,49.50
2019-05-02T03:20:04.049Z,48.00
2019-05-02T03:23:07.768Z,48.00
2019-05-02T03:26:15.341Z,48.90
2019-05-02T03:29:16.821Z,47.80
2019-05-02T03:32:31.734Z,47.70
2019-05-02T03:35:40.266Z,47.90
2019-05-02T03:38:35.051Z,48.10
2019-05-02T03:41:37.897Z,47.80
2019-05-02T03:44:41.547Z,48.10
2019-05-02T03:47:46.586Z,48.20
2019-05-02T03:50:51.023Z,47.60
2019-05-02T03:54:06.458Z,47.10
2019-05-02T03:57:00.476Z,47.60
2019-05-02T04:00:05.282Z,47.70
2019-05-02T04:03:09.088Z,47.00
2019-05-02T04:06:13.974Z,47.20
2019-05-02T04:09:40.042Z,47.50
2019-05-02T04:12:42.726Z,47.40
2019-05-02T04:15:46.751Z,47.30
2019-05-02T04:18:56.120Z,46.10
2019-05-02T04:22:01.628Z,45.80
2019-05-02T04:25:06.093Z,45.50
2019-05-02T04:28:11.876Z,45.80
2019-05-02T04:31:13.392Z,45.50
2019-05-02T04:34:17.932Z,45.70
2019-05-02T04:37:21.871Z,45.80
2019-05-02T04:40:28.198Z,45.60
2019-05-02T04:43:31.309Z,45.00
2019-05-02T04:46:35.086Z,45.80
2019-05-02T04:49:39.227Z,44.70
2019-05-02T04:52:48.400Z,44.70
2019-05-02T04:56:07.065Z,43.70
2019-05-02T04:59:13.968Z,43.60
2019-05-02T05:02:12.966Z,43.40
2019-05-02T05:05:25.027Z,43.50
2019-05-02T05:08:26.214Z,43.60
2019-05-02T05:11:27.531Z,43.70
2019-05-02T05:14:38.199Z,43.60
2019-05-02T05:17:37.510Z,43.50
2019-05-02T05:20:45.963Z,43.40
2019-05-02T05:24:18.158Z,43.50
2019-05-02T05:27:22.901Z,42.60
2019-05-02T05:30:27.819Z,42.80
2019-05-02T05:33:31.551Z,43.20
2019-05-02T05:36:37.020Z,43.10
2019-05-02T05:39:42.946Z,43.60
2019-05-02T05:42:48.107Z,43.70
2019-05-02T05:45:56.320Z,43.70
2019-05-02T05:48:58.331Z,43.60
2019-05-02T05:52:03.808Z,43.70
2019-05-02T05:55:12.699Z,44.50
2019-05-02T05:58:15.818Z,43.90
2019-05-02T06:01:20.576Z,43.70
2019-05-02T06:04:32.735Z,43.80
2019-05-02T06:07:33.685Z,44.10
2019-05-02T06:10:38.960Z,43.80
2019-05-02T06:13:48.903Z,43.50
2019-05-02T06:16:51.676Z,43.80
2019-05-02T06:19:55.423Z,43.60
2019-05-02T06:22:59.944Z,43.60
2019-05-02T06:26:07.843Z,43.90
2019-05-02T06:29:13.050Z,44.00
2019-05-02T06:32:19.364Z,44.00
2019-05-02T06:35:23.081Z,44.40
2019-05-02T06:38:26.800Z,44.00
2019-05-02T06:41:30.466Z,43.60
2019-05-02T06:44:34.205Z,43.10
2019-05-02T06:47:41.657Z,43.00
2019-05-02T06:50:43.511Z,43.10
2019-05-02T06:53:48.988Z,42.90
2019-05-02T06:56:52.749Z,43.20
2019-05-02T06:59:57.165Z,43.30
2019-05-02T07:03:04.995Z,44.40
2019-05-02T07:06:07.834Z,44.20
2019-05-02T07:09:12.090Z,44.00
2019-05-02T07:12:16.666Z,43.80
2019-05-02T07:15:58.327Z,44.30
2019-05-02T07:19:10.637Z,43.50
2019-05-02T07:22:14.780Z,43.50
2019-05-02T07:25:18.676Z,43.20
2019-05-02T07:28:23.948Z,43.30
2019-05-02T07:31:27.836Z,43.30
2019-05-02T07:34:31.766Z,43.60
2019-05-02T07:37:35.462Z,43.60
2019-05-02T07:40:39.538Z,43.70
2019-05-02T07:43:43.222Z,43.60
2019-05-02T07:46:52.013Z,43.70
2019-05-02T07:49:52.607Z,44.20
2019-05-02T07:52:56.245Z,43.70
2019-05-02T07:55:59.990Z,43.80
2019-05-02T07:59:04.746Z,44.40
2019-05-02T08:02:08.538Z,44.50
2019-05-02T08:05:15.516Z,44.40
2019-05-02T08:08:18.602Z,44.40
2019-05-02T08:11:22.571Z,44.90
2019-05-02T08:14:29.148Z,44.40
2019-05-02T08:17:32.011Z,44.30
2019-05-02T08:20:35.673Z,43.90
2019-05-02T08:23:39.486Z,44.10
2019-05-02T08:27:00.960Z,44.50
2019-05-02T08:30:05.990Z,45.00
2019-05-02T08:33:09.790Z,44.20
2019-05-02T08:36:13.833Z,44.30
2019-05-02T08:39:17.866Z,44.10
2019-05-02T08:42:21.547Z,44.20
2019-05-02T08:45:25.883Z,44.20
2019-05-02T08:48:29.626Z,44.30
2019-05-02T08:51:33.330Z,44.40
2019-05-02T08:54:37.073Z,43.60
2019-05-02T08:57:41.077Z,43.70
2019-05-02T09:00:47.104Z,43.10
2019-05-02T09:03:55.537Z,42.70
2019-05-02T09:06:58.769Z,43.30
2019-05-02T09:10:05.675Z,42.90
2019-05-02T09:13:07.414Z,43.20
2019-05-02T09:16:12.076Z,42.90
2019-05-02T09:19:21.243Z,42.80
2019-05-02T09:22:22.162Z,42.50
2019-05-02T09:25:26.239Z,43.00
2019-05-02T09:28:32.107Z,42.20
2019-05-02T09:31:36.693Z,41.80
2019-05-02T09:34:42.365Z,41.50
2019-05-02T09:37:46.444Z,41.90
2019-05-02T09:40:52.544Z,41.80
2019-05-02T09:43:55.785Z,41.40
2019-05-02T09:46:59.445Z,41.70
2019-05-02T09:50:15.645Z,40.60
2019-05-02T09:53:20.926Z,40.60
2019-05-02T09:56:25.080Z,40.60
2019-05-02T09:59:33.244Z,39.90
2019-05-02T10:02:37.190Z,40.20
2019-05-02T10:05:42.907Z,39.80
2019-05-02T10:08:46.750Z,39.50
2019-05-02T10:11:52.532Z,39.70
2019-05-02T10:14:56.802Z,39.90
2019-05-02T10:18:08.635Z,39.60
2019-05-02T10:21:07.728Z,39.70
2019-05-02T10:24:12.674Z,40.10
2019-05-02T10:27:16.462Z,40.10
2019-05-02T10:30:23.216Z,40.70
2019-05-02T10:33:27.931Z,40.60
2019-05-02T10:36:32.601Z,40.80
2019-05-02T10:39:37.971Z,40.60
2019-05-02T10:42:41.994Z,40.70
2019-05-02T10:45:54.857Z,40.90
2019-05-02T10:49:01.942Z,40.60
2019-05-02T10:52:05.659Z,40.80
2019-05-02T10:55:09.474Z,40.80
2019-05-02T10:58:13.169Z,40.60
2019-05-02T11:01:18.012Z,40.70
2019-05-02T11:04:28.831Z,40.40
2019-05-02T11:07:28.231Z,40.30
2019-05-02T11:10:32.361Z,40.80
2019-05-02T11:14:05.610Z,40.60
2019-05-02T11:17:17.315Z,40.60
2019-05-02T11:20:18.862Z,41.00
2019-05-02T11:23:22.874Z,40.70
2019-05-02T11:26:26.782Z,40.80
2019-05-02T11:29:32.195Z,40.80
2019-05-02T11:32:35.991Z,40.80
2019-05-02T11:35:41.681Z,41.40
2019-05-02T11:38:47.876Z,40.10
2019-05-02T11:41:52.566Z,39.60
2019-05-02T11:44:56.993Z,40.10
2019-05-02T11:48:01.687Z,40.20
2019-05-02T11:51:07.383Z,40.60
2019-05-02T11:54:12.898Z,40.70
2019-05-02T11:57:21.285Z,40.00
2019-05-02T12:00:24.261Z,40.50
2019-05-02T12:03:36.942Z,39.80
2019-05-02T12:06:38.744Z,39.60
2019-05-02T12:09:44.294Z,40.50
2019-05-02T12:12:47.915Z,39.60
2019-05-02T12:15:52.054Z,38.50
2019-05-02T12:19:08.562Z,38.40
2019-05-02T12:22:02.596Z,38.50
2019-05-02T12:25:06.890Z,38.60
2019-05-02T12:28:11.984Z,38.70
2019-05-02T12:31:29.508Z,39.30
2019-05-02T12:34:33.467Z,38.50
2019-05-02T12:37:37.202Z,38.50
2019-05-02T12:40:42.169Z,39.00
2019-05-02T12:43:46.193Z,38.70
2019-05-02T12:46:51.633Z,38.90
2019-05-02T12:49:55.309Z,38.20
2019-05-02T12:52:59.459Z,37.70
2019-05-02T12:56:03.197Z,38.10
2019-05-02T12:59:07.046Z,37.50
2019-05-02T13:02:16.354Z,37.20
2019-05-02T13:05:22.095Z,37.30
2019-05-02T13:08:25.450Z,37.30
2019-05-02T13:11:57.864Z,37.30
2019-05-02T13:15:02.295Z,37.30
2019-05-02T13:18:06.695Z,37.80
2019-05-02T13:21:13.385Z,38.00
2019-05-02T13:24:33.702Z,38.10
2019-05-02T13:27:43.319Z,38.30
2019-05-02T13:30:51.670Z,38.00
2019-05-02T13:34:13.290Z,37.50
2019-05-02T13:37:16.691Z,38.80
2019-05-02T13:40:25.582Z,39.10
2019-05-02T13:43:34.646Z,39.50
2019-05-02T13:46:38.458Z,39.10
2019-05-02T13:49:53.563Z,39.60
2019-05-02T13:52:53.107Z,39.40
2019-05-02T13:56:02.099Z,38.90
2019-05-02T13:59:06.118Z,38.70
2019-05-02T14:02:31.751Z,39.30
2019-05-02T14:05:37.305Z,37.90
2019-05-02T14:09:02.912Z,37.80
2019-05-02T14:12:25.473Z,37.70
2019-05-02T14:15:34.942Z,37.70
2019-05-02T14:18:38.662Z,37.80
2019-05-02T14:21:42.505Z,37.60
2019-05-02T14:24:46.223Z,37.60
2019-05-02T14:27:53.861Z,37.60
2019-05-02T14:30:55.338Z,37.90
2019-05-02T14:34:16.591Z,38.20
2019-05-02T14:37:20.409Z,38.60
2019-05-02T14:40:31.922Z,38.10
2019-05-02T14:43:53.309Z,38.10
2019-05-02T14:46:57.253Z,37.60
2019-05-02T14:50:04.049Z,38.00
2019-05-02T14:53:06.565Z,37.30
2019-05-02T14:56:15.132Z,36.40
2019-05-02T14:59:20.080Z,35.70
2019-05-02T15:02:47.543Z,35.40
2019-05-02T15:05:49.027Z,35.60
2019-05-02T15:08:52.908Z,35.60
2019-05-02T15:12:03.454Z,36.40
2019-05-02T15:15:08.304Z,36.70
2019-05-02T15:18:17.246Z,37.40
2019-05-02T15:21:22.809Z,37.60
2019-05-02T15:24:27.703Z,38.30
2019-05-02T15:27:40.137Z,37.80
2019-05-02T15:30:44.813Z,37.60
2019-05-02T15:33:51.808Z,37.00
2019-05-02T15:36:55.573Z,37.30
2019-05-02T15:43:09.240Z,37.00
2019-05-02T15:46:14.954Z,36.80
2019-05-02T15:49:16.023Z,37.30
2019-05-02T15:52:27.816Z,37.40
2019-05-02T15:55:33.892Z,37.50
2019-05-02T15:58:35.409Z,37.50
2019-05-02T16:01:48.036Z,37.80
2019-05-02T16:04:52.232Z,37.50
2019-05-02T16:08:05.248Z,37.50
2019-05-02T16:11:02.941Z,37.40
2019-05-02T16:14:07.130Z,37.50
2019-05-02T16:17:12.477Z,37.50
2019-05-02T16:20:24.023Z,37.50
2019-05-02T16:23:32.887Z,37.80
2019-05-02T16:26:37.106Z,37.80
2019-05-02T16:29:39.085Z,38.20
2019-05-02T16:32:46.973Z,39.40
2019-05-02T16:35:53.498Z,39.60
2019-05-02T16:38:56.146Z,40.10
2019-05-02T16:42:02.405Z,40.10
2019-05-02T16:45:07.727Z,40.50
2019-05-02T16:48:12.103Z,41.10
2019-05-02T16:51:30.038Z,40.30
2019-05-02T16:54:22.390Z,40.00
2019-05-02T16:57:26.193Z,39.70
2019-05-02T17:00:32.019Z,40.20
2019-05-02T17:03:36.026Z,40.10
2019-05-02T17:06:39.970Z,39.90
2019-05-02T17:10:14.781Z,40.20
2019-05-02T17:13:14.240Z,39.90
2019-05-02T17:16:18.190Z,40.00
2019-05-02T17:19:26.205Z,40.20
2019-05-02T17:22:27.952Z,40.30
2019-05-02T17:25:32.242Z,40.60
2019-05-02T17:28:38.015Z,40.10
2019-05-02T17:31:42.697Z,40.30
2019-05-02T17:34:46.742Z,40.00
2019-05-02T17:37:52.456Z,40.80
2019-05-02T17:40:59.415Z,41.00
2019-05-02T17:44:03.196Z,41.70
2019-05-02T17:47:07.326Z,41.90
2019-05-02T17:50:33.929Z,42.60
2019-05-02T17:53:41.469Z,43.70
2019-05-02T17:56:43.254Z,44.40
2019-05-02T17:59:47.401Z,45.00
2019-05-02T18:02:51.725Z,45.00
2019-05-02T18:05:56.350Z,45.40
2019-05-02T18:09:00.137Z,46.20
2019-05-02T18:12:07.152Z,46.30
2019-05-02T18:15:11.828Z,46.70
2019-05-02T18:18:16.763Z,47.10
2019-05-02T18:21:26.902Z,47.20
2019-05-02T18:24:26.186Z,48.10
2019-05-02T18:27:29.885Z,48.60
2019-05-02T18:30:33.704Z,49.50
2019-05-02T18:33:41.563Z,50.00
2019-05-02T18:36:42.912Z,49.90
2019-05-02T18:39:53.323Z,50.00
2019-05-02T18:42:56.609Z,50.00
2019-05-02T18:45:58.280Z,50.20
2019-05-02T18:49:03.163Z,50.10
2019-05-02T18:52:06.894Z,50.00
2019-05-02T18:55:10.623Z,49.80
2019-05-02T18:58:14.341Z,49.50
2019-05-02T19:01:20.843Z,49.20
2019-05-02T19:04:25.379Z,49.00
2019-05-02T19:07:32.962Z,48.60
2019-05-02T19:10:37.013Z,48.20
2019-05-02T19:13:42.669Z,48.10
2019-05-02T19:16:45.434Z,48.10
2019-05-02T19:19:49.126Z,48.00
2019-05-02T19:22:56.662Z,48.20
2019-05-02T19:26:03.677Z,47.80
2019-05-02T19:29:17.096Z,47.70
2019-05-02T19:32:25.503Z,47.60
2019-05-02T19:35:25.194Z,48.30
2019-05-02T19:38:28.927Z,47.80
2019-05-02T19:41:32.613Z,48.30
2019-05-02T19:44:36.366Z,47.90
2019-05-02T19:47:42.010Z,48.10
2019-05-02T19:50:45.764Z,47.80
2019-05-02T19:53:53.429Z,47.80
2019-05-02T19:56:56.533Z,47.80
2019-05-02T20:00:02.822Z,47.30
2019-05-02T20:03:06.310Z,46.50
2019-05-02T20:06:10.145Z,47.00
2019-05-02T20:09:13.850Z,46.80
2019-05-02T20:12:17.742Z,46.40
2019-05-02T20:15:26.855Z,46.30
2019-05-02T20:18:28.245Z,46.20
2019-05-02T20:21:37.910Z,45.90
2019-05-02T20:24:59.903Z,46.20
2019-05-02T20:28:01.981Z,45.60
2019-05-02T20:31:05.914Z,45.70
2019-05-02T20:34:11.672Z,45.40
2019-05-02T20:37:15.085Z,46.10
2019-05-02T20:40:28.803Z,47.00
2019-05-02T20:43:32.493Z,47.20
2019-05-02T20:46:36.238Z,49.30
2019-05-02T20:49:39.962Z,49.00
2019-05-02T20:52:43.637Z,50.90
2019-05-02T20:55:47.858Z,51.80
2019-05-02T20:58:52.691Z,52.70
2019-05-02T21:01:56.538Z,53.70
2019-05-02T21:05:00.262Z,55.70
2019-05-02T21:08:23.107Z,56.30
2019-05-02T21:11:27.600Z,57.00
2019-05-02T21:14:31.441Z,58.80
2019-05-02T21:17:35.138Z,58.80
2019-05-02T21:20:38.817Z,59.40
2019-05-02T21:23:47.373Z,60.00
2019-05-02T21:26:47.891Z,60.20
2019-05-02T21:29:52.259Z,61.30
2019-05-02T21:32:56.105Z,61.50
2019-05-02T21:36:01.009Z,61.30
2019-05-02T21:39:11.756Z,62.00
2019-05-02T21:42:15.390Z,61.50
2019-05-02T21:45:19.105Z,62.00
2019-05-02T21:48:24.121Z,60.90
2019-05-02T21:51:35.345Z,60.00
2019-05-02T21:54:45.685Z,60.40
2019-05-02T21:57:49.681Z,60.00
2019-05-02T22:01:02.969Z,60.00
2019-05-02T22:04:06.975Z,58.30
2019-05-02T22:07:12.190Z,57.90
2019-05-02T22:10:16.298Z,57.20
2019-05-02T22:13:22.091Z,57.10
2019-05-02T22:16:25.469Z,57.50
2019-05-02T22:19:29.162Z,57.80
2019-05-02T22:22:34.364Z,56.70
2019-05-02T22:25:38.120Z,56.20
2019-05-02T22:28:41.831Z,55.40
2019-05-02T22:31:45.518Z,55.00
2019-05-02T22:34:49.296Z,54.80
2019-05-02T22:37:54.955Z,53.90
2019-05-02T22:40:59.313Z,53.40
2019-05-02T22:44:02.993Z,53.30
2019-05-02T22:47:06.710Z,53.10
2019-05-02T22:50:13.918Z,53.40
2019-05-02T22:53:16.145Z,51.50
2019-05-02T22:56:19.785Z,51.10
2019-05-02T22:59:23.989Z,48.70
2019-05-02T23:02:27.734Z,48.10
2019-05-02T23:05:32.125Z,46.00
2019-05-02T23:08:37.279Z,46.30
2019-05-02T23:11:42.625Z,44.60
2019-05-02T23:14:46.544Z,44.40
2019-05-02T23:17:52.285Z,42.60
2019-05-02T23:20:56.042Z,41.90
2019-05-02T23:24:01.747Z,40.20
2019-05-02T23:27:24.554Z,41.40
2019-05-02T23:30:28.222Z,41.80
2019-05-02T23:33:51.640Z,41.60
2019-05-02T23:36:55.377Z,41.00
2019-05-02T23:39:59.082Z,41.20
2019-05-02T23:43:02.759Z,41.30
2019-05-02T23:46:06.730Z,41.20
2019-05-02T23:49:12.544Z,42.10
2019-05-02T23:52:16.084Z,42.10
2019-05-02T23:55:19.728Z,42.20
2019-05-02T23:58:24.265Z,42.50
